sensor_id;sensor_type;location;lat;lon;timestamp;pressure;altitude;pressure_sealevel;temperature;humidity
20630;BME280;17386;43.846;25.950;2022-07-06T00:01:54;100914.13;;;26.93;55.78
20630;BME280;17386;43.846;25.950;2022-07-06T00:04:20;100924.88;;;26.77;56.75
20630;BME280;17386;43.846;25.950;2022-07-06T00:06:47;100948.97;;;26.54;57.51
20630;BME280;17386;43.846;25.950;2022-07-06T00:09:13;100943.25;;;26.57;57.47
20630;BME280;17386;43.846;25.950;2022-07-06T00:11:38;100951.28;;;26.49;57.97
20630;BME280;17386;43.846;25.950;2022-07-06T00:14:04;100928.03;;;26.54;57.15
20630;BME280;17386;43.846;25.950;2022-07-06T00:16:30;100926.81;;;26.66;56.34
20630;BME280;17386;43.846;25.950;2022-07-06T00:18:56;100920.59;;;26.74;56.17
20630;BME280;17386;43.846;25.950;2022-07-06T00:21:22;100925.97;;;26.84;55.93
20630;BME280;17386;43.846;25.950;2022-07-06T00:23:48;100921.84;;;26.80;55.89
20630;BME280;17386;43.846;25.950;2022-07-06T00:26:14;100932.41;;;26.83;55.72
20630;BME280;17386;43.846;25.950;2022-07-06T00:28:41;100932.81;;;26.88;55.40
20630;BME280;17386;43.846;25.950;2022-07-06T00:31:06;100929.94;;;26.89;55.28
20630;BME280;17386;43.846;25.950;2022-07-06T00:33:32;100933.59;;;26.98;54.95
20630;BME280;17386;43.846;25.950;2022-07-06T00:35:58;100936.00;;;27.01;54.60
20630;BME280;17386;43.846;25.950;2022-07-06T00:38:23;100933.28;;;27.01;54.82
20630;BME280;17386;43.846;25.950;2022-07-06T00:40:49;100923.38;;;27.00;54.90
20630;BME280;17386;43.846;25.950;2022-07-06T00:43:14;100927.31;;;26.97;55.12
20630;BME280;17386;43.846;25.950;2022-07-06T00:45:40;100929.31;;;26.95;56.33
20630;BME280;17386;43.846;25.950;2022-07-06T00:48:06;100927.59;;;26.94;57.93
20630;BME280;17386;43.846;25.950;2022-07-06T00:50:33;100924.00;;;26.94;57.77
20630;BME280;17386;43.846;25.950;2022-07-06T00:53:02;100918.16;;;26.89;58.19
20630;BME280;17386;43.846;25.950;2022-07-06T00:55:30;100926.22;;;26.90;59.41
20630;BME280;17386;43.846;25.950;2022-07-06T00:57:56;100916.38;;;26.80;61.90
20630;BME280;17386;43.846;25.950;2022-07-06T01:00:26;100922.22;;;26.67;64.31
20630;BME280;17386;43.846;25.950;2022-07-06T01:02:52;100919.88;;;26.54;66.15
20630;BME280;17386;43.846;25.950;2022-07-06T01:05:19;100924.16;;;26.57;66.93
20630;BME280;17386;43.846;25.950;2022-07-06T01:07:47;100912.31;;;26.48;67.90
20630;BME280;17386;43.846;25.950;2022-07-06T01:10:16;100921.50;;;26.47;68.81
20630;BME280;17386;43.846;25.950;2022-07-06T01:12:44;100920.63;;;26.47;69.62
20630;BME280;17386;43.846;25.950;2022-07-06T01:15:12;100923.34;;;26.47;69.75
20630;BME280;17386;43.846;25.950;2022-07-06T01:17:41;100925.53;;;26.43;70.57
20630;BME280;17386;43.846;25.950;2022-07-06T01:20:28;100921.38;;;26.39;71.54
20630;BME280;17386;43.846;25.950;2022-07-06T01:22:55;100934.28;;;26.37;72.12
20630;BME280;17386;43.846;25.950;2022-07-06T01:25:22;100929.13;;;26.34;72.04
20630;BME280;17386;43.846;25.950;2022-07-06T01:27:49;100924.66;;;26.15;73.72
20630;BME280;17386;43.846;25.950;2022-07-06T01:30:16;100923.94;;;26.13;73.94
20630;BME280;17386;43.846;25.950;2022-07-06T01:32:43;100914.63;;;26.15;73.91
20630;BME280;17386;43.846;25.950;2022-07-06T01:35:14;100921.06;;;26.14;74.12
20630;BME280;17386;43.846;25.950;2022-07-06T01:37:41;100916.94;;;26.10;74.60
20630;BME280;17386;43.846;25.950;2022-07-06T01:40:08;100919.09;;;26.07;74.51
20630;BME280;17386;43.846;25.950;2022-07-06T01:42:34;100909.53;;;26.03;74.99
20630;BME280;17386;43.846;25.950;2022-07-06T01:45:01;100905.81;;;26.04;74.88
20630;BME280;17386;43.846;25.950;2022-07-06T01:47:27;100906.50;;;26.06;74.83
20630;BME280;17386;43.846;25.950;2022-07-06T01:49:53;100908.81;;;26.01;75.30
20630;BME280;17386;43.846;25.950;2022-07-06T01:52:20;100916.97;;;26.01;75.21
20630;BME280;17386;43.846;25.950;2022-07-06T01:54:46;100915.91;;;25.84;75.82
20630;BME280;17386;43.846;25.950;2022-07-06T01:57:13;100915.94;;;25.64;76.68
20630;BME280;17386;43.846;25.950;2022-07-06T01:59:39;100920.94;;;25.69;76.91
20630;BME280;17386;43.846;25.950;2022-07-06T02:02:04;100912.94;;;25.68;76.87
20630;BME280;17386;43.846;25.950;2022-07-06T02:04:31;100906.22;;;25.62;77.63
20630;BME280;17386;43.846;25.950;2022-07-06T02:06:57;100904.63;;;25.59;77.51
20630;BME280;17386;43.846;25.950;2022-07-06T02:09:23;100918.25;;;25.59;78.08
20630;BME280;17386;43.846;25.950;2022-07-06T02:11:48;100920.00;;;25.51;78.21
20630;BME280;17386;43.846;25.950;2022-07-06T02:14:14;100919.72;;;25.44;78.82
20630;BME280;17386;43.846;25.950;2022-07-06T02:16:39;100915.88;;;25.47;78.74
20630;BME280;17386;43.846;25.950;2022-07-06T02:19:06;100920.03;;;25.41;79.23
20630;BME280;17386;43.846;25.950;2022-07-06T02:21:32;100919.59;;;25.36;79.64
20630;BME280;17386;43.846;25.950;2022-07-06T02:23:59;100925.72;;;25.38;79.94
20630;BME280;17386;43.846;25.950;2022-07-06T02:26:26;100923.75;;;25.30;80.14
20630;BME280;17386;43.846;25.950;2022-07-06T02:28:52;100930.91;;;25.31;80.54
20630;BME280;17386;43.846;25.950;2022-07-06T02:31:18;100932.38;;;25.26;80.86
20630;BME280;17386;43.846;25.950;2022-07-06T02:33:43;100919.19;;;25.21;81.18
20630;BME280;17386;43.846;25.950;2022-07-06T02:36:08;100926.50;;;25.21;81.60
20630;BME280;17386;43.846;25.950;2022-07-06T02:38:34;100929.22;;;25.21;82.18
20630;BME280;17386;43.846;25.950;2022-07-06T02:41:00;100924.03;;;25.18;82.48
20630;BME280;17386;43.846;25.950;2022-07-06T02:43:25;100922.91;;;25.20;82.21
20630;BME280;17386;43.846;25.950;2022-07-06T02:45:51;100925.47;;;25.22;82.15
20630;BME280;17386;43.846;25.950;2022-07-06T02:48:17;100918.50;;;25.19;82.17
20630;BME280;17386;43.846;25.950;2022-07-06T02:50:45;100917.47;;;25.10;82.96
20630;BME280;17386;43.846;25.950;2022-07-06T02:53:12;100920.94;;;25.13;82.90
20630;BME280;17386;43.846;25.950;2022-07-06T02:55:37;100916.59;;;25.00;83.30
20630;BME280;17386;43.846;25.950;2022-07-06T02:58:03;100911.59;;;24.96;83.66
20630;BME280;17386;43.846;25.950;2022-07-06T03:00:28;100922.03;;;24.91;84.00
20630;BME280;17386;43.846;25.950;2022-07-06T03:02:54;100924.44;;;24.84;84.57
20630;BME280;17386;43.846;25.950;2022-07-06T03:05:19;100922.63;;;24.85;85.13
20630;BME280;17386;43.846;25.950;2022-07-06T03:07:46;100927.47;;;24.91;85.08
20630;BME280;17386;43.846;25.950;2022-07-06T03:10:11;100924.19;;;24.87;85.23
20630;BME280;17386;43.846;25.950;2022-07-06T03:12:36;100926.34;;;24.93;84.69
20630;BME280;17386;43.846;25.950;2022-07-06T03:15:02;100929.47;;;24.89;85.09
20630;BME280;17386;43.846;25.950;2022-07-06T03:17:27;100926.75;;;24.79;85.88
20630;BME280;17386;43.846;25.950;2022-07-06T03:19:53;100930.34;;;24.79;86.09
20630;BME280;17386;43.846;25.950;2022-07-06T03:22:20;100936.59;;;24.70;87.00
20630;BME280;17386;43.846;25.950;2022-07-06T03:24:46;100937.78;;;24.77;86.93
20630;BME280;17386;43.846;25.950;2022-07-06T03:27:13;100932.19;;;24.79;87.02
20630;BME280;17386;43.846;25.950;2022-07-06T03:29:40;100929.34;;;24.71;87.84
20630;BME280;17386;43.846;25.950;2022-07-06T03:32:06;100929.75;;;24.76;87.94
20630;BME280;17386;43.846;25.950;2022-07-06T03:34:31;100929.03;;;24.83;88.14
20630;BME280;17386;43.846;25.950;2022-07-06T03:36:56;100925.03;;;24.88;88.25
20630;BME280;17386;43.846;25.950;2022-07-06T03:39:22;100929.31;;;24.90;87.90
20630;BME280;17386;43.846;25.950;2022-07-06T03:41:47;100928.19;;;24.93;87.90
20630;BME280;17386;43.846;25.950;2022-07-06T03:44:14;100932.06;;;25.00;87.77
20630;BME280;17386;43.846;25.950;2022-07-06T03:46:40;100926.31;;;25.03;87.28
20630;BME280;17386;43.846;25.950;2022-07-06T03:49:07;100933.09;;;25.08;86.90
20630;BME280;17386;43.846;25.950;2022-07-06T03:51:34;100921.78;;;25.13;87.02
20630;BME280;17386;43.846;25.950;2022-07-06T03:54:01;100925.22;;;25.15;86.67
20630;BME280;17386;43.846;25.950;2022-07-06T03:56:27;100923.66;;;25.13;86.88
20630;BME280;17386;43.846;25.950;2022-07-06T03:58:58;100916.03;;;25.16;87.10
20630;BME280;17386;43.846;25.950;2022-07-06T04:01:25;100916.03;;;25.16;87.07
20630;BME280;17386;43.846;25.950;2022-07-06T04:03:53;100916.19;;;25.15;86.86
20630;BME280;17386;43.846;25.950;2022-07-06T04:06:19;100917.75;;;25.17;86.97
20630;BME280;17386;43.846;25.950;2022-07-06T04:08:46;100921.63;;;25.15;87.41
20630;BME280;17386;43.846;25.950;2022-07-06T04:11:13;100922.34;;;25.17;87.07
20630;BME280;17386;43.846;25.950;2022-07-06T04:13:40;100927.50;;;25.20;86.90
20630;BME280;17386;43.846;25.950;2022-07-06T04:16:07;100934.06;;;25.27;87.13
20630;BME280;17386;43.846;25.950;2022-07-06T04:18:33;100922.91;;;25.20;86.72
20630;BME280;17386;43.846;25.950;2022-07-06T04:21:00;100932.78;;;25.12;87.33
20630;BME280;17386;43.846;25.950;2022-07-06T04:23:25;100926.34;;;25.22;86.54
20630;BME280;17386;43.846;25.950;2022-07-06T04:25:52;100930.63;;;25.34;86.32
20630;BME280;17386;43.846;25.950;2022-07-06T04:28:19;100931.06;;;25.40;84.94
20630;BME280;17386;43.846;25.950;2022-07-06T04:30:46;100933.47;;;25.43;84.93
20630;BME280;17386;43.846;25.950;2022-07-06T04:33:12;100936.63;;;25.48;84.58
20630;BME280;17386;43.846;25.950;2022-07-06T04:35:39;100930.13;;;25.58;83.98
20630;BME280;17386;43.846;25.950;2022-07-06T04:38:04;100934.84;;;25.66;83.84
20630;BME280;17386;43.846;25.950;2022-07-06T04:40:31;100937.00;;;25.72;83.30
20630;BME280;17386;43.846;25.950;2022-07-06T04:42:58;100930.44;;;25.75;82.76
20630;BME280;17386;43.846;25.950;2022-07-06T04:45:25;100938.00;;;25.81;82.90
20630;BME280;17386;43.846;25.950;2022-07-06T04:47:52;100938.44;;;25.76;82.73
20630;BME280;17386;43.846;25.950;2022-07-06T04:50:19;100934.25;;;25.82;82.68
20630;BME280;17386;43.846;25.950;2022-07-06T04:52:46;100936.25;;;25.89;82.40
20630;BME280;17386;43.846;25.950;2022-07-06T04:55:11;100930.94;;;25.88;82.63
20630;BME280;17386;43.846;25.950;2022-07-06T04:57:39;100937.38;;;25.87;82.66
20630;BME280;17386;43.846;25.950;2022-07-06T05:00:05;100937.09;;;25.90;82.72
20630;BME280;17386;43.846;25.950;2022-07-06T05:02:31;100934.53;;;25.88;82.82
20630;BME280;17386;43.846;25.950;2022-07-06T05:04:57;100939.50;;;25.93;82.64
20630;BME280;17386;43.846;25.950;2022-07-06T05:07:24;100937.34;;;25.97;82.69
20630;BME280;17386;43.846;25.950;2022-07-06T05:09:54;100932.59;;;26.08;82.30
20630;BME280;17386;43.846;25.950;2022-07-06T05:12:21;100933.53;;;26.17;82.03
20630;BME280;17386;43.846;25.950;2022-07-06T05:14:47;100938.22;;;26.25;81.35
20630;BME280;17386;43.846;25.950;2022-07-06T05:17:14;100939.69;;;26.19;81.15
20630;BME280;17386;43.846;25.950;2022-07-06T05:19:39;100954.22;;;26.10;80.91
20630;BME280;17386;43.846;25.950;2022-07-06T05:22:06;100956.00;;;26.19;80.52
20630;BME280;17386;43.846;25.950;2022-07-06T05:24:31;100965.13;;;26.28;79.93
20630;BME280;17386;43.846;25.950;2022-07-06T05:26:57;100958.97;;;26.35;79.99
20630;BME280;17386;43.846;25.950;2022-07-06T05:29:25;100966.72;;;26.30;79.66
20630;BME280;17386;43.846;25.950;2022-07-06T05:31:50;100967.00;;;26.27;79.65
20630;BME280;17386;43.846;25.950;2022-07-06T05:34:17;100971.41;;;26.38;78.83
20630;BME280;17386;43.846;25.950;2022-07-06T05:36:44;100981.41;;;26.47;77.82
20630;BME280;17386;43.846;25.950;2022-07-06T05:39:10;100980.09;;;26.14;79.51
20630;BME280;17386;43.846;25.950;2022-07-06T05:41:37;100978.06;;;26.26;79.87
20630;BME280;17386;43.846;25.950;2022-07-06T05:44:04;100979.16;;;26.42;79.44
20630;BME280;17386;43.846;25.950;2022-07-06T05:46:31;100977.94;;;26.55;79.37
20630;BME280;17386;43.846;25.950;2022-07-06T05:48:57;100978.34;;;26.60;78.81
20630;BME280;17386;43.846;25.950;2022-07-06T05:51:43;100992.38;;;26.65;78.76
20630;BME280;17386;43.846;25.950;2022-07-06T05:54:09;100990.06;;;26.70;78.86
20630;BME280;17386;43.846;25.950;2022-07-06T05:56:36;100998.00;;;26.81;77.95
20630;BME280;17386;43.846;25.950;2022-07-06T05:59:03;100987.16;;;26.89;77.24
20630;BME280;17386;43.846;25.950;2022-07-06T06:01:28;100997.91;;;26.73;78.34
20630;BME280;17386;43.846;25.950;2022-07-06T06:03:55;100983.06;;;26.85;77.44
20630;BME280;17386;43.846;25.950;2022-07-06T06:06:21;100993.59;;;26.98;77.01
20630;BME280;17386;43.846;25.950;2022-07-06T06:08:48;100993.53;;;27.08;76.10
20630;BME280;17386;43.846;25.950;2022-07-06T06:11:15;100984.50;;;27.07;75.68
20630;BME280;17386;43.846;25.950;2022-07-06T06:13:42;100994.94;;;27.12;76.44
20630;BME280;17386;43.846;25.950;2022-07-06T06:16:07;100990.59;;;27.19;75.59
20630;BME280;17386;43.846;25.950;2022-07-06T06:18:33;100990.47;;;27.29;75.29
20630;BME280;17386;43.846;25.950;2022-07-06T06:20:59;100994.63;;;27.33;74.71
20630;BME280;17386;43.846;25.950;2022-07-06T06:23:28;101001.47;;;27.37;74.62
20630;BME280;17386;43.846;25.950;2022-07-06T06:25:56;100997.56;;;27.39;74.97
20630;BME280;17386;43.846;25.950;2022-07-06T06:28:22;100997.56;;;27.21;75.30
20630;BME280;17386;43.846;25.950;2022-07-06T06:30:48;100992.75;;;27.33;74.91
20630;BME280;17386;43.846;25.950;2022-07-06T06:33:18;100985.59;;;27.32;75.20
20630;BME280;17386;43.846;25.950;2022-07-06T06:35:57;100993.34;;;27.45;74.62
20630;BME280;17386;43.846;25.950;2022-07-06T06:38:24;100993.25;;;27.54;73.82
20630;BME280;17386;43.846;25.950;2022-07-06T06:41:11;100995.19;;;27.62;73.32
20630;BME280;17386;43.846;25.950;2022-07-06T06:43:40;100989.00;;;27.52;74.37
20630;BME280;17386;43.846;25.950;2022-07-06T06:46:07;100989.50;;;27.56;74.25
20630;BME280;17386;43.846;25.950;2022-07-06T06:48:34;100981.56;;;27.44;75.36
20630;BME280;17386;43.846;25.950;2022-07-06T06:51:00;100980.31;;;27.57;75.69
20630;BME280;17386;43.846;25.950;2022-07-06T06:53:27;100982.00;;;27.58;75.46
20630;BME280;17386;43.846;25.950;2022-07-06T06:55:53;100992.94;;;27.75;75.14
20630;BME280;17386;43.846;25.950;2022-07-06T06:58:20;100986.50;;;27.85;73.82
20630;BME280;17386;43.846;25.950;2022-07-06T07:00:47;100988.28;;;27.94;73.66
20630;BME280;17386;43.846;25.950;2022-07-06T07:03:14;100992.09;;;28.01;73.43
20630;BME280;17386;43.846;25.950;2022-07-06T07:05:40;100982.81;;;27.94;72.82
20630;BME280;17386;43.846;25.950;2022-07-06T07:08:07;100983.94;;;27.83;73.57
20630;BME280;17386;43.846;25.950;2022-07-06T07:10:34;100984.19;;;27.98;73.53
20630;BME280;17386;43.846;25.950;2022-07-06T07:13:00;100995.94;;;27.90;74.50
20630;BME280;17386;43.846;25.950;2022-07-06T07:15:27;100992.28;;;28.07;73.92
20630;BME280;17386;43.846;25.950;2022-07-06T07:17:53;100997.81;;;28.24;73.37
20630;BME280;17386;43.846;25.950;2022-07-06T07:20:20;100988.19;;;28.38;73.06
20630;BME280;17386;43.846;25.950;2022-07-06T07:22:47;100994.72;;;28.53;71.98
20630;BME280;17386;43.846;25.950;2022-07-06T07:25:13;101000.75;;;28.65;70.07
20630;BME280;17386;43.846;25.950;2022-07-06T07:27:39;100991.72;;;28.72;68.91
20630;BME280;17386;43.846;25.950;2022-07-06T07:30:05;100994.44;;;28.64;68.22
20630;BME280;17386;43.846;25.950;2022-07-06T07:32:30;101002.28;;;28.67;68.48
20630;BME280;17386;43.846;25.950;2022-07-06T07:34:56;100995.50;;;28.71;69.48
20630;BME280;17386;43.846;25.950;2022-07-06T07:37:21;100993.50;;;28.47;70.95
20630;BME280;17386;43.846;25.950;2022-07-06T07:39:47;100990.50;;;28.67;70.10
20630;BME280;17386;43.846;25.950;2022-07-06T07:42:12;100995.34;;;28.81;70.15
20630;BME280;17386;43.846;25.950;2022-07-06T07:44:38;100989.03;;;28.88;69.82
20630;BME280;17386;43.846;25.950;2022-07-06T07:47:04;100999.50;;;29.01;69.99
20630;BME280;17386;43.846;25.950;2022-07-06T07:49:30;100989.78;;;29.15;69.16
20630;BME280;17386;43.846;25.950;2022-07-06T07:51:55;100987.06;;;29.31;68.36
20630;BME280;17386;43.846;25.950;2022-07-06T07:54:21;100985.34;;;29.30;68.00
20630;BME280;17386;43.846;25.950;2022-07-06T07:56:46;100981.06;;;29.28;68.11
20630;BME280;17386;43.846;25.950;2022-07-06T07:59:12;100989.28;;;29.03;67.62
20630;BME280;17386;43.846;25.950;2022-07-06T08:01:38;100983.44;;;29.06;67.80
20630;BME280;17386;43.846;25.950;2022-07-06T08:04:03;100985.50;;;29.12;67.45
20630;BME280;17386;43.846;25.950;2022-07-06T08:06:30;100984.47;;;29.13;67.48
20630;BME280;17386;43.846;25.950;2022-07-06T08:08:55;100988.78;;;29.40;66.37
20630;BME280;17386;43.846;25.950;2022-07-06T08:11:21;100990.47;;;29.50;66.03
20630;BME280;17386;43.846;25.950;2022-07-06T08:13:46;100987.75;;;29.74;64.85
20630;BME280;17386;43.846;25.950;2022-07-06T08:16:12;100986.72;;;29.75;63.74
20630;BME280;17386;43.846;25.950;2022-07-06T08:18:38;100989.13;;;29.62;64.29
20630;BME280;17386;43.846;25.950;2022-07-06T08:21:04;100988.94;;;29.80;62.64
20630;BME280;17386;43.846;25.950;2022-07-06T08:23:30;100992.16;;;30.00;61.23
20630;BME280;17386;43.846;25.950;2022-07-06T08:25:56;100994.34;;;30.04;61.58
20630;BME280;17386;43.846;25.950;2022-07-06T08:28:21;101000.31;;;30.24;61.77
20630;BME280;17386;43.846;25.950;2022-07-06T08:30:47;100998.81;;;29.97;62.02
20630;BME280;17386;43.846;25.950;2022-07-06T08:33:13;101002.91;;;30.17;61.25
20630;BME280;17386;43.846;25.950;2022-07-06T08:35:38;100988.81;;;30.37;58.06
20630;BME280;17386;43.846;25.950;2022-07-06T08:38:04;100991.50;;;30.45;56.79
20630;BME280;17386;43.846;25.950;2022-07-06T08:40:34;100995.28;;;30.44;56.96
20630;BME280;17386;43.846;25.950;2022-07-06T08:43:00;100990.75;;;30.59;56.71
20630;BME280;17386;43.846;25.950;2022-07-06T08:45:26;100991.72;;;30.66;56.04
20630;BME280;17386;43.846;25.950;2022-07-06T08:47:53;100994.31;;;30.76;55.71
20630;BME280;17386;43.846;25.950;2022-07-06T08:50:19;100991.13;;;30.87;54.76
20630;BME280;17386;43.846;25.950;2022-07-06T08:52:47;100984.50;;;31.04;53.42
20630;BME280;17386;43.846;25.950;2022-07-06T08:55:13;101001.84;;;30.66;55.92
20630;BME280;17386;43.846;25.950;2022-07-06T08:57:39;100990.72;;;30.67;57.07
20630;BME280;17386;43.846;25.950;2022-07-06T09:00:07;101003.16;;;30.86;56.51
20630;BME280;17386;43.846;25.950;2022-07-06T09:02:33;101003.94;;;30.95;56.04
20630;BME280;17386;43.846;25.950;2022-07-06T09:05:02;100998.09;;;30.98;55.76
20630;BME280;17386;43.846;25.950;2022-07-06T09:07:28;100995.56;;;30.88;55.47
20630;BME280;17386;43.846;25.950;2022-07-06T09:09:55;100998.09;;;30.98;55.43
20630;BME280;17386;43.846;25.950;2022-07-06T09:12:26;100997.25;;;30.97;55.48
20630;BME280;17386;43.846;25.950;2022-07-06T09:14:54;100997.94;;;30.60;56.13
20630;BME280;17386;43.846;25.950;2022-07-06T09:17:20;101007.91;;;30.61;56.99
20630;BME280;17386;43.846;25.950;2022-07-06T09:19:46;101002.34;;;30.77;56.08
20630;BME280;17386;43.846;25.950;2022-07-06T09:22:25;101001.84;;;30.66;56.69
20630;BME280;17386;43.846;25.950;2022-07-06T09:24:50;101004.97;;;30.63;57.67
20630;BME280;17386;43.846;25.950;2022-07-06T09:27:16;101013.66;;;30.74;56.06
20630;BME280;17386;43.846;25.950;2022-07-06T09:29:45;101008.19;;;30.66;56.27
20630;BME280;17386;43.846;25.950;2022-07-06T09:32:10;101001.84;;;30.74;55.97
20630;BME280;17386;43.846;25.950;2022-07-06T09:34:47;101002.47;;;30.84;56.21
20630;BME280;17386;43.846;25.950;2022-07-06T09:37:13;101012.94;;;30.81;55.83
20630;BME280;17386;43.846;25.950;2022-07-06T09:39:39;101011.66;;;30.68;56.27
20630;BME280;17386;43.846;25.950;2022-07-06T09:42:06;101006.06;;;30.45;57.03
20630;BME280;17386;43.846;25.950;2022-07-06T09:44:36;101006.25;;;30.44;57.02
20630;BME280;17386;43.846;25.950;2022-07-06T09:47:05;101008.59;;;30.55;56.97
20630;BME280;17386;43.846;25.950;2022-07-06T09:49:31;101007.81;;;30.77;55.59
20630;BME280;17386;43.846;25.950;2022-07-06T09:51:58;101004.31;;;30.92;54.01
20630;BME280;17386;43.846;25.950;2022-07-06T09:54:24;100995.81;;;31.10;53.79
20630;BME280;17386;43.846;25.950;2022-07-06T09:56:51;101004.19;;;31.08;nan
20630;BME280;17386;43.846;25.950;2022-07-06T09:59:21;101003.84;;;31.11;53.24
20630;BME280;17386;43.846;25.950;2022-07-06T10:01:50;100997.19;;;31.37;51.96
20630;BME280;17386;43.846;25.950;2022-07-06T10:04:18;100997.19;;;31.37;51.26
20630;BME280;17386;43.846;25.950;2022-07-06T10:06:45;100993.22;;;31.54;51.13
20630;BME280;17386;43.846;25.950;2022-07-06T10:09:12;100988.00;;;31.82;50.74
20630;BME280;17386;43.846;25.950;2022-07-06T10:14:17;100978.84;;;32.49;49.02
20630;BME280;17386;43.846;25.950;2022-07-06T10:16:45;100980.28;;;32.96;46.43
20630;BME280;17386;43.846;25.950;2022-07-06T10:19:14;100989.00;;;33.42;45.59
20630;BME280;17386;43.846;25.950;2022-07-06T10:21:40;100982.19;;;33.16;44.97
20630;BME280;17386;43.846;25.950;2022-07-06T10:24:09;100972.94;;;33.45;44.96
20630;BME280;17386;43.846;25.950;2022-07-06T10:26:38;100972.94;;;33.24;44.76
20630;BME280;17386;43.846;25.950;2022-07-06T10:29:06;100974.94;;;33.86;44.80
20630;BME280;17386;43.846;25.950;2022-07-06T10:31:37;100972.47;;;34.74;42.33
20630;BME280;17386;43.846;25.950;2022-07-06T10:34:06;100970.69;;;35.07;41.03
20630;BME280;17386;43.846;25.950;2022-07-06T10:36:39;100960.72;;;35.73;39.73
20630;BME280;17386;43.846;25.950;2022-07-06T10:39:04;100971.09;;;36.10;38.65
20630;BME280;17386;43.846;25.950;2022-07-06T10:41:50;100967.53;;;35.90;37.80
20630;BME280;17386;43.846;25.950;2022-07-06T10:44:44;100969.75;;;36.33;36.96
20630;BME280;17386;43.846;25.950;2022-07-06T10:47:11;100968.19;;;36.50;36.47
20630;BME280;17386;43.846;25.950;2022-07-06T10:49:48;100977.28;;;35.86;37.78
20630;BME280;17386;43.846;25.950;2022-07-06T10:52:17;100974.75;;;35.78;37.69
20630;BME280;17386;43.846;25.950;2022-07-06T10:54:43;100970.88;;;36.19;36.83
20630;BME280;17386;43.846;25.950;2022-07-06T10:57:13;100967.81;;;36.47;36.57
20630;BME280;17386;43.846;25.950;2022-07-06T10:59:40;100971.16;;;35.91;37.23
20630;BME280;17386;43.846;25.950;2022-07-06T11:02:16;100964.09;;;35.08;39.28
20630;BME280;17386;43.846;25.950;2022-07-06T11:04:43;100960.25;;;35.82;37.85
20630;BME280;17386;43.846;25.950;2022-07-06T11:07:15;100960.31;;;35.69;37.87
20630;BME280;17386;43.846;25.950;2022-07-06T11:09:54;100973.66;;;36.12;36.32
20630;BME280;17386;43.846;25.950;2022-07-06T11:12:20;100960.91;;;36.62;35.77
20630;BME280;17386;43.846;25.950;2022-07-06T11:14:50;100951.53;;;37.33;34.39
20630;BME280;17386;43.846;25.950;2022-07-06T11:17:17;100950.22;;;37.61;33.77
20630;BME280;17386;43.846;25.950;2022-07-06T11:19:57;100962.25;;;37.23;34.00
20630;BME280;17386;43.846;25.950;2022-07-06T11:22:26;100954.78;;;37.23;33.70
20630;BME280;17386;43.846;25.950;2022-07-06T11:24:53;100949.13;;;37.12;33.24
20630;BME280;17386;43.846;25.950;2022-07-06T11:27:22;100944.97;;;37.28;32.41
20630;BME280;17386;43.846;25.950;2022-07-06T11:29:49;100940.47;;;36.63;34.02
20630;BME280;17386;43.846;25.950;2022-07-06T11:32:15;100941.72;;;36.67;34.75
20630;BME280;17386;43.846;25.950;2022-07-06T11:34:49;100934.28;;;36.68;34.06
20630;BME280;17386;43.846;25.950;2022-07-06T11:37:16;100938.63;;;35.46;36.08
20630;BME280;17386;43.846;25.950;2022-07-06T11:39:46;100928.84;;;35.17;36.24
20630;BME280;17386;43.846;25.950;2022-07-06T11:42:13;100929.28;;;35.07;36.66
20630;BME280;17386;43.846;25.950;2022-07-06T11:44:39;100930.72;;;34.97;36.76
20630;BME280;17386;43.846;25.950;2022-07-06T11:47:07;100933.41;;;34.70;36.87
20630;BME280;17386;43.846;25.950;2022-07-06T11:49:35;100933.09;;;33.76;39.18
20630;BME280;17386;43.846;25.950;2022-07-06T11:52:13;100927.66;;;33.55;39.83
20630;BME280;17386;43.846;25.950;2022-07-06T11:54:41;100917.31;;;33.35;40.47
20630;BME280;17386;43.846;25.950;2022-07-06T11:57:11;100915.06;;;32.75;42.01
20630;BME280;17386;43.846;25.950;2022-07-06T11:59:38;100912.38;;;32.81;42.39
20630;BME280;17386;43.846;25.950;2022-07-06T12:02:12;100912.69;;;32.35;43.38
20630;BME280;17386;43.846;25.950;2022-07-06T12:04:42;100907.97;;;32.15;43.46
20630;BME280;17386;43.846;25.950;2022-07-06T12:07:11;100916.56;;;32.26;43.65
20630;BME280;17386;43.846;25.950;2022-07-06T12:09:47;100910.53;;;32.01;43.84
20630;BME280;17386;43.846;25.950;2022-07-06T12:12:14;100909.78;;;32.07;44.75
20630;BME280;17386;43.846;25.950;2022-07-06T12:14:43;100907.88;;;32.08;44.54
20630;BME280;17386;43.846;25.950;2022-07-06T12:17:15;100903.03;;;32.10;46.16
20630;BME280;17386;43.846;25.950;2022-07-06T12:19:42;100910.34;;;32.03;46.55
20630;BME280;17386;43.846;25.950;2022-07-06T12:22:10;100897.06;;;32.06;46.18
20630;BME280;17386;43.846;25.950;2022-07-06T12:24:37;100898.47;;;31.73;47.06
20630;BME280;17386;43.846;25.950;2022-07-06T12:27:16;100902.44;;;31.55;47.26
20630;BME280;17386;43.846;25.950;2022-07-06T12:29:44;100893.09;;;31.65;46.09
20630;BME280;17386;43.846;25.950;2022-07-06T12:32:20;100893.97;;;31.80;45.80
20630;BME280;17386;43.846;25.950;2022-07-06T12:35:11;100881.53;;;31.84;44.87
20630;BME280;17386;43.846;25.950;2022-07-06T12:37:38;100885.72;;;31.95;44.69
20630;BME280;17386;43.846;25.950;2022-07-06T12:40:24;100899.66;;;31.93;44.82
20630;BME280;17386;43.846;25.950;2022-07-06T12:42:52;100888.06;;;31.83;45.61
20630;BME280;17386;43.846;25.950;2022-07-06T12:45:18;100884.38;;;31.91;45.01